Airfield :
LOGIN :

Register | Disclaimer

   EN    FR    IT 

 










Legend :    VFR   Marginal VFR   IFR   Intensive IFR   Very Intensive IFR
Visi :
Ceiling :
>= 8 km
>= 3000ft
5 to 8 km
1000 to 3000 ft
1500m to 5 km
500 to 1000 ft
800 to 1500m
200 to 500 ft
< 800m
< 200 ft
Symbols :   Thunderstorms  Fog  Heavy snow  Heavy precipitations  Wind > 20 kt
SIGMETs :     Misc.  Thunderstorms  Icing  Turbulence  Mountain Waves  Volcanic Ashes






- Airport Elevation : 1325 ft
- IATA code : EBU


LFMH - St-Etienne Boutheon

CURRENT METAR :
  • 271500Z AUTO VRB03KT 9999 BKN045/// OVC058/// ///TCU 14/06 Q1004 TEMPO 33015G30KT SCT050

EXPIRED METARs :
  • 271430Z AUTO 22006KT 180V250 9999 BKN044 BKN054 OVC064 14/05 Q1003 TEMPO 33015G30KT FEW030TCU
  • 271400Z AUTO 22011KT 200V260 9999 FEW041 BKN058 BKN160 13/04 Q1003 BECMG 33011KT
  • 271330Z AUTO 21015KT 180V240 9999 FEW040 SCT056 12/03 Q1003 BECMG 33011KT
  • 271300Z AUTO 21017KT 9999 SCT040 BKN046 BKN052 11/03 Q1003 BECMG 24015G25KT
  • 271230Z AUTO 22018KT 9999 FEW045 SCT100 BKN130 11/03 Q1003 BECMG 24015G25KT

TAF TAF LFMH
Valid from the 27 at 15:00 until the 28 at 15:00 UTC


271400Z 2715/2815 21010KT 9999 SCT050
BECMG 2715/2717 33011KT
TEMPO 2716/2719 33015G30KT FEW030TCU
BECMG 2800/2802 17004KT
ATIS : +33 4 77 36 17 51



MET'MAP, your aeronautical weather chart ! - Copyright ORBIFLY December 2007 - Disclaimer

ORBIFLY MET'MAP TEAM :

Programming & Development : Alexandra Zaïnal
Concept & original design : Baudouin d'Aumeries
Assistance for programming : Marc-Olivier Méhu
Technical & hardware support : Manuel Goepfert

Contact : metmap@orbifly.com




SOURCES & CREDITS :

   NOAA